Flight Track Log - Related Links

Times and Time Zones

All times are in EDT time to prevent confusion due to time zone crossing. See the N173AA flight status page for this flight to view local times or setup timezone preferences in your user account.


Time Position Orientation Groundspeed Altitude Reporting Facility
EDT Latitude Longitude Course Direction KTS MPH feet Rate Location/Type
Sun 02:26:54 PM 35.6303 -77.4628 202° Southwest 347 399 6,600  Level Washington Center
Sun 02:27:54 PM 35.5919 -77.5028 220° Southwest 250 288 8,500 1,881 Climbing Washington Center
Sun 02:28:52 PM 35.5497 -77.5475 221° Southwest 218 251 10,300 1,866 Climbing Washington Center
Sun 02:29:53 PM 35.5072 -77.5900 219° Southwest 211 243 12,200 1,700 Climbing Washington Center
Sun 02:31:00 PM 35.2337 -77.7759 223° Southwest  Level FlightAware Approximate
Sun 02:31:52 PM 35.4158 -77.6819 219° Southwest 351 404 15,400  Level Washington Center
Sun 02:32:00 PM 35.1669 -77.8415 202° Southwest  Level FlightAware Approximate
Sun 02:32:52 PM 35.3714 -77.7292 221° Southwest 275 316 16,700  Level Washington Center
Sun 02:33:53 PM 35.3225 -77.7736 217° Southwest 253 291 17,900 1,289 Climbing Washington Center
Sun 02:34:53 PM 35.2714 -77.8231 218° Southwest 238 274 19,300 1,339 Climbing Washington Center
Sun 02:35:54 PM 35.2206 -77.8725 218° Southwest 238 274 20,600 1,289 Climbing Washington Center
Sun 02:36:54 PM 35.1694 -77.9219 218° Southwest 233 268 21,900 1,271 Climbing Washington Center
Sun 02:37:52 PM 35.1183 -77.9686 217° Southwest 233 268 23,100 1,271 Climbing Washington Center
Sun 02:38:52 PM 35.0714 -78.0206 222° Southwest 233 268 24,400 1,289 Climbing Washington Center
Sun 02:39:53 PM 35.0225 -78.0700 220° Southwest 238 274 25,700 1,233 Climbing Washington Center
Sun 02:41:52 PM 34.9222 -78.1633 217° Southwest 223 257 28,100 1,140 Climbing Jacksonville Center
Sun 02:42:52 PM 34.8694 -78.2042 212° Southwest 223 257 29,100 950 Climbing Jacksonville Center
Sun 02:43:52 PM 34.8189 -78.2500 217° Southwest 218 251 30,000 450 Climbing Jacksonville Center
Sun 02:44:52 PM 34.7644 -78.2958 215° Southwest 228 262 30,000  Level Jacksonville Center
Sun 02:45:52 PM 34.7042 -78.3572 220° Southwest 253 291 30,000  Level Jacksonville Center
Sun 02:46:52 PM 34.6456 -78.4158 219° Southwest 264 304 30,000  Level Jacksonville Center
Sun 02:47:52 PM 34.5911 -78.4639 216° Southwest 269 310 30,000  Level Jacksonville Center
Sun 02:48:52 PM 34.5347 -78.5247 222° Southwest 275 316 30,000  Level Jacksonville Center
Sun 02:49:52 PM 34.4703 -78.5911 220° Southwest 275 316 30,000 -50 Level Jacksonville Center
Sun 02:50:52 PM 34.4097 -78.6494 218° Southwest 275 316 29,900  Descending Jacksonville Center
Sun 02:51:52 PM 34.3492 -78.7078 219° Southwest 275 316 30,000 50 Climbing Jacksonville Center
Sun 02:52:52 PM 34.2883 -78.7608 216° Southwest 275 316 30,000  Level Jacksonville Center
Sun 02:53:52 PM 34.2253 -78.8167 216° Southwest 275 316 30,000 400 Level Jacksonville Center
Sun 02:54:52 PM 34.1667 -78.8694 217° Southwest 275 316 30,800 500 Climbing Jacksonville Center
Sun 02:55:52 PM 34.1097 -78.9222 218° Southwest 275 316 31,000 100 Climbing Jacksonville Center
Sun 02:56:52 PM 34.0511 -78.9750 217° Southwest 269 310 31,000  Level Jacksonville Center
Sun 02:57:52 PM 33.9942 -79.0278 218° Southwest 269 310 31,000  Level Jacksonville Center
Sun 02:58:52 PM 33.9356 -79.0856 219° Southwest 269 310 31,000  Level Jacksonville Center
Sun 02:59:52 PM 33.8786 -79.1406 219° Southwest 269 310 31,000  Level Jacksonville Center
Sun 03:00:52 PM 33.8219 -79.1953 219° Southwest 269 310 31,000  Level Jacksonville Center
Sun 03:01:52 PM 33.7608 -79.2503 217° Southwest 269 310 31,000  Level Jacksonville Center
Sun 03:02:52 PM 33.7039 -79.3000 216° Southwest 269 310 31,000  Level Jacksonville Center
Sun 03:03:52 PM 33.6469 -79.3525 218° Southwest 264 304 31,000  Level Jacksonville Center
Sun 03:04:52 PM 33.5881 -79.4097 219° Southwest 269 310 31,000  Level Jacksonville Center
Sun 03:05:52 PM 33.5311 -79.4642 219° Southwest 269 310 31,000  Level Jacksonville Center
Sun 03:06:51 PM 33.4719 -79.5186 218° Southwest 269 310 31,000  Level Jacksonville Center
Sun 03:07:52 PM 33.4108 -79.5758 218° Southwest 269 310 31,000  Level Jacksonville Center
Sun 03:08:52 PM 33.3517 -79.6278 216° Southwest 269 310 31,000 -200 Level Jacksonville Center
Sun 03:09:52 PM 33.2906 -79.6847 218° Southwest 269 310 30,600 -350 Descending Jacksonville Center
Sun 03:10:52 PM 33.2294 -79.7364 215° Southwest 274 315 30,300 -300 Descending Jacksonville Center
Sun 03:11:52 PM 33.1661 -79.7958 218° Southwest 279 321 30,000 -150 Descending Jacksonville Center
Sun 03:12:52 PM 33.1047 -79.8500 216° Southwest 285 328 30,000  Level Jacksonville Center
Sun 03:13:52 PM 33.0436 -79.9067 218° Southwest 285 328 30,000  Level Jacksonville Center
Sun 03:14:52 PM 32.9800 -79.9581 214° Southwest 285 328 30,000 50 Level Jacksonville Center
Sun 03:15:52 PM 32.9186 -80.0097 215° Southwest 285 328 30,100  Climbing Jacksonville Center
Sun 03:16:52 PM 32.8592 -80.0611 216° Southwest 285 328 30,000 -50 Descending Jacksonville Center
Sun 03:17:52 PM 32.7956 -80.1125 214° Southwest 280 322 30,000  Level Jacksonville Center
Sun 03:18:51 PM 32.7300 -80.1589 211° Southwest 280 322 30,000  Level Jacksonville Center
Sun 03:19:52 PM 32.6683 -80.2053 212° Southwest 274 315 30,000  Level Jacksonville Center
Sun 03:20:52 PM 32.6025 -80.2539 212° Southwest 274 315 30,000 50 Level Jacksonville Center
Sun 03:21:52 PM 32.5389 -80.3028 213° Southwest 274 315 30,100  Climbing Jacksonville Center
Sun 03:22:52 PM 32.4731 -80.3514 212° Southwest 274 315 30,000 -50 Descending Jacksonville Center
Sun 03:23:52 PM 32.4092 -80.3975 211° Southwest 274 315 30,000  Level Jacksonville Center
Sun 03:24:52 PM 32.3433 -80.4433 210° Southwest 274 315 30,000  Level Jacksonville Center
Sun 03:25:52 PM 32.2794 -80.4919 213° Southwest 274 315 30,000  Level Jacksonville Center
Sun 03:26:52 PM 32.2136 -80.5403 212° Southwest 274 315 30,000  Level Jacksonville Center
Sun 03:27:52 PM 32.1475 -80.5861 210° Southwest 274 315 30,000  Level Jacksonville Center
Sun 03:28:51 PM 32.0839 -80.6342 213° Southwest 274 315 30,000  Level Jacksonville Center
Sun 03:29:52 PM 32.0261 -80.6750 211° Southwest 274 315 30,000  Level Jacksonville Center
Sun 03:30:52 PM 31.9581 -80.7281 213° Southwest 274 315 30,000  Level Jacksonville Center
Sun 03:31:52 PM 31.8900 -80.7761 211° Southwest 274 315 30,000 50 Level Jacksonville Center
Sun 03:32:52 PM 31.8344 -80.8189 213° Southwest 274 315 30,100  Climbing Jacksonville Center
Sun 03:33:52 PM 31.7622 -80.8719 212° Southwest 274 315 30,000 -50 Descending Jacksonville Center
Sun 03:34:52 PM 31.7044 -80.9144 212° Southwest 274 315 30,000  Level Jacksonville Center
Sun 03:35:52 PM 31.6300 -80.9625 209° Southwest 280 322 30,000  Level Jacksonville Center
Sun 03:36:52 PM 31.5617 -81.0103 211° Southwest 280 322 30,000  Level Jacksonville Center
Sun 03:37:52 PM 31.5039 -81.0528 212° Southwest 280 322 30,000  Level Jacksonville Center
Sun 03:38:52 PM 31.4294 -81.1056 211° Southwest 280 322 30,000  Level Jacksonville Center
Sun 03:39:52 PM 31.3633 -81.1531 212° Southwest 280 322 30,000 50 Level Jacksonville Center
Sun 03:40:52 PM 31.2714 -81.1547 181° South 315 362 30,100 50 Climbing Jacksonville Center
Sun 03:41:51 PM 31.1839 -81.1636 185° South 322 371 30,100 -50 Level Jacksonville Center
Sun 03:42:51 PM 31.0919 -81.1603 178° South 327 376 30,000 -50 Descending Jacksonville Center
Sun 03:43:52 PM 30.9956 -81.1403 170° South 341 392 30,000  Level Jacksonville Center
Sun 03:44:52 PM 30.9036 -81.1325 176° South 341 392 30,000  Level Jacksonville Center
Sun 03:45:52 PM 30.8097 -81.1317 180° South 341 392 30,000  Level Jacksonville Center
Sun 03:46:52 PM 30.7200 -81.1333 181° South 335 386 30,000  Level Jacksonville Center
Sun 03:47:52 PM 30.6261 -81.1350 181° South 335 386 30,000 50 Level Jacksonville Center
Sun 03:48:52 PM 30.5342 -81.1247 175° South 335 386 30,100  Climbing Jacksonville Center
Sun 03:49:52 PM 30.4375 -81.0808 159° South 342 394 30,000 -50 Descending Jacksonville Center
Sun 03:50:52 PM 30.3556 -81.0533 164° South 350 403 30,000  Level Jacksonville Center
Sun 03:51:52 PM 30.2611 -81.0167 161° South 355 409 30,000  Level Jacksonville Center
Sun 03:52:52 PM 30.1667 -80.9825 163° South 355 409 30,000  Level Jacksonville Center
Sun 03:53:51 PM 30.0722 -80.9483 163° South 355 409 30,000  Level Jacksonville Center
Sun 03:54:52 PM 29.9778 -80.9144 163° South 355 409 30,000  Level Jacksonville Center
Sun 03:55:51 PM 29.8853 -80.8778 161° South 360 414 30,000 50 Level Jacksonville Center
Sun 03:56:52 PM 29.7886 -80.8417 162° South 360 414 30,100 27 Climbing Jacksonville Center
Sun 03:59:33 PM 29.5167 -80.7378 162° South 376 433 30,100 -27 Level Miami Center
Sun 04:00:33 PM 29.4194 -80.7081 165° South 371 427 30,000 -50 Descending Miami Center
Sun 04:01:33 PM 29.3225 -80.6689 161° South 371 427 30,000  Level Miami Center
Sun 04:02:33 PM 29.2233 -80.6322 162° South 371 427 30,000 50 Level Miami Center
Sun 04:03:33 PM 29.1242 -80.5956 162° South 376 433 30,100  Climbing Miami Center
Sun 04:04:33 PM 29.0250 -80.5589 162° South 376 433 30,000 -400 Descending Miami Center
Sun 04:05:33 PM 28.9278 -80.5225 162° South 376 433 29,300 -800 Descending Miami Center
Sun 04:06:33 PM 28.8369 -80.4889 162° South 360 414 28,400 -1,000 Descending Miami Center
Sun 04:07:33 PM 28.7458 -80.4550 162° South 353 406 27,300 -1,100 Descending Miami Center
Sun 04:08:33 PM 28.6547 -80.4283 166° South 353 406 26,200 -1,100 Descending Miami Center
Sun 04:09:33 PM 28.5853 -80.3719 145° Southeast 338 389 25,100 -1,100 Descending Miami Center
Sun 04:10:33 PM 28.5161 -80.2964 136° Southeast 343 395 24,000 -550 Descending Miami Center
Sun 04:11:33 PM 28.4411 -80.2114 135° Southeast 343 395 24,000  Level Miami Center
Sun 04:12:33 PM 28.3739 -80.1317 134° Southeast 343 395 24,000  Level Miami Center
Sun 04:13:33 PM 28.3069 -80.0519 134° Southeast 343 395 24,000  Level Miami Center
Sun 04:14:33 PM 28.2650 -79.9633 118° Southeast 348 400 24,000  Level Miami Center
Sun 04:15:33 PM 28.2319 -79.8422 107° East 348 400 24,000  Level Miami Center
Sun 04:16:33 PM 28.2069 -79.7381 105° East 353 406 24,000  Level Miami Center
Sun 04:17:33 PM 28.1736 -79.6406 111° Southeast 343 395 24,000  Level Miami Center
Sun 04:18:33 PM 28.1144 -79.5567 129° Southeast 331 381 24,000  Level Miami Center
Sun 04:19:33 PM 28.0533 -79.4753 130° Southeast 330 380 24,000  Level Miami Center
Sun 04:20:33 PM 27.9858 -79.4078 139° Southeast 336 387 24,000  Level Miami Center
Sun 04:21:33 PM 27.9097 -79.3450 144° Southeast 336 387 24,000 -350 Level Miami Center
Sun 04:22:33 PM 27.8314 -79.2869 147° Southeast 341 392 23,300 -800 Descending Miami Center
Sun 04:23:33 PM 27.7481 -79.2664 168° South 336 387 22,400 -850 Descending Miami Center
Sun 04:24:33 PM 27.6581 -79.2811 188° South 330 380 21,600 -850 Descending Miami Center
Sun 04:25:33 PM 27.5678 -79.3189 200° South 319 367 20,700 -900 Descending Miami Center
Sun 04:26:33 PM 27.4836 -79.3500 198° South 332 382 19,800 -1,000 Descending Miami Center
Sun 04:27:33 PM 27.4014 -79.3881 202° Southwest 332 382 18,700 -900 Descending Miami Center
Sun 04:28:33 PM 27.3256 -79.4261 204° Southwest 330 380 18,000 -350 Descending Miami Center
Sun 04:29:33 PM 27.2475 -79.4733 208° Southwest 330 380 18,000  Level Miami Center
Sun 04:30:33 PM 27.1567 -79.5272 208° Southwest 330 380 18,000  Level Miami Center
Sun 04:31:33 PM 27.0744 -79.5697 205° Southwest 330 380 18,000 -450 Level Miami Center
Sun 04:32:33 PM 26.9861 -79.6072 201° Southwest 324 373 17,100 -1,250 Descending Miami Center
Sun 04:33:33 PM 26.9061 -79.6381 199° South 339 390 15,500 -1,600 Descending Miami Center
Sun 04:34:33 PM 26.8200 -79.6708 199° South 339 390 13,900 -1,300 Descending Miami Center
Sun 04:35:33 PM 26.7358 -79.7014 198° South 326 375 12,900 -1,600 Descending Miami Center
Sun 04:36:33 PM 26.6472 -79.7364 199° South 316 364 10,700 -1,700 Descending Miami Center
Sun 04:37:33 PM 26.5694 -79.7717 202° Southwest 321 369 9,500 -950 Descending Miami Center
Sun 04:38:33 PM 26.4850 -79.8114 203° Southwest 314 361 8,800 -712 Descending Miami Center
Sun 04:39:31 PM 26.4111 -79.8514 206° Southwest 288 331 8,100 -353 Descending Miami Center
Sun 04:40:32 PM 26.3433 -79.8961 211° Southwest 292 336 8,100 -344 Level Miami Center
Sun 04:41:33 PM 26.3042 -79.9714 240° Southwest 292 336 7,400 -843 Descending Miami Center
Sun 04:42:33 PM 26.2794 -80.0542 252° West 294 338 6,400 -950 Descending Miami Center
Sun 04:43:33 PM 26.2714 -80.1306 263° West 289 333 5,500 -927 Descending Miami Center
Sun 04:44:36 PM 26.2525 -80.2228 257° West 243 280 4,500 -750 Descending Miami Center
Sun 04:45:25 PM 26.2306 -80.2753 245° Southwest 242 278 4,100 -197 Descending Miami Center
Sun 04:46:38 PM 26.1931 -80.3575 243° Southwest 239 275 4,100  Level Miami Center
Sun 04:47:33 PM 26.1772 -80.4033 249° West 237 273 4,100  Level Miami Center
Sun 04:48:34 PM 26.1528 -80.4675 247° West 197 227 4,100  Level Miami Center
Sun 04:49:41 PM 26.0919 -80.4747 186° South 199 229 4,100  Level Miami Center
Sun 04:50:36 PM 26.0722 -80.4325 117° Southeast 216 249 4,100 -310 Level Miami Center
Sun 04:51:37 PM 26.0758 -80.3656 87° East 218 251 3,500 -878 Descending Miami Center
Sun 04:52:39 PM 26.0775 -80.3008 88° East 183 211 2,300 -976 Descending Miami Center
Sun 04:53:40 PM 26.0744 -80.2522 94° East 158 182 1,500 -738 Descending Miami Center
Sun 04:54:41 PM 26.0753 -80.2083 89° East 132 152 800 -689 Descending Miami Center

Login

Don't have an account? Register now (free) for customized features, flight alerts, and more!